Time;durP1;ratioP1;P1;durP2;ratioP2;P2;SDS_P1;SDS_P2;PMS_P1;PMS_P2;Temp;Humidity;BMP_temperature;BMP_pressure;BME280_temperature;BME280_humidity;BME280_pressure;Samples;Min_cycle;Max_cycle;Signal;HPM_P1;HPM_P2
2022/06/23 00:01:36;;;;;;;3.78;2.80;;;18.10;99.00;;;;;;5089341;28;20200;-52
2022/06/23 00:04:04;;;;;;;4.13;2.42;;;17.90;99.90;;;;;;5090161;28;20239;-52
2022/06/23 00:06:39;;;;;;;4.43;3.08;;;17.80;99.90;;;;;;5089662;28;20669;-52
2022/06/23 00:09:32;;;;;;;3.70;3.00;;;17.70;99.90;;;;;;5085290;28;20754;-52
2022/06/23 00:12:03;;;;;;;6.65;3.70;;;17.60;99.90;;;;;;5083839;28;20251;-52
2022/06/23 00:14:31;;;;;;;4.00;3.00;;;17.40;99.90;;;;;;5089970;28;20196;-52
2022/06/23 00:17:18;;;;;;;3.90;2.90;;;17.30;99.90;;;;;;5089896;28;20236;-52
2022/06/23 00:19:46;;;;;;;4.63;2.70;;;17.30;99.90;;;;;;5077182;28;20262;-52
2022/06/23 00:22:18;;;;;;;2.90;2.70;;;17.20;99.90;;;;;;5089515;28;20797;-52
2022/06/23 00:24:48;;;;;;;3.80;2.72;;;17.20;99.90;;;;;;5076567;28;20232;-52
2022/06/23 00:27:20;;;;;;;4.13;2.63;;;17.20;99.90;;;;;;5090340;28;20268;-52
2022/06/23 00:29:49;;;;;;;4.35;2.38;;;17.10;99.90;;;;;;5089287;28;20247;-52
2022/06/23 00:32:19;;;;;;;4.43;2.45;;;17.10;99.90;;;;;;5089924;28;20263;-52
2022/06/23 00:34:56;;;;;;;4.18;2.72;;;17.00;99.90;;;;;;5089900;28;20226;-52
2022/06/23 00:37:26;;;;;;;4.45;2.40;;;17.00;99.90;;;;;;5089493;28;20204;-52
2022/06/23 00:39:56;;;;;;;3.58;2.67;;;16.90;99.90;;;;;;5089953;28;20316;-52
2022/06/23 00:42:29;;;;;;;3.63;2.58;;;16.90;99.90;;;;;;5089358;28;20639;-52
2022/06/23 00:45:01;;;;;;;4.00;2.40;;;16.80;99.90;;;;;;5092810;28;20204;-51
2022/06/23 00:47:36;;;;;;;3.92;2.70;;;16.70;99.90;;;;;;5097658;28;20283;-51
2022/06/23 00:50:20;;;;;;;2.80;2.60;;;16.70;99.90;;;;;;5096624;28;20200;-51
2022/06/23 00:52:53;;;;;;;2.97;2.70;;;16.60;99.90;;;;;;5089417;28;20321;-52
2022/06/23 00:55:36;;;;;;;2.95;2.47;;;16.60;99.90;;;;;;5089869;28;20208;-51
2022/06/23 00:58:15;;;;;;;2.95;2.67;;;16.60;99.90;;;;;;5089157;28;20231;-52
2022/06/23 01:00:44;;;;;;;6.05;2.90;;;16.60;99.90;;;;;;5089407;28;20253;-52
2022/06/23 01:03:17;;;;;;;4.90;2.72;;;16.50;99.90;;;;;;5088600;28;20208;-52
2022/06/23 01:05:51;;;;;;;4.32;2.70;;;16.50;99.90;;;;;;5089662;28;20247;-52
2022/06/23 01:08:28;;;;;;;3.13;2.83;;;16.50;99.90;;;;;;5089275;28;20223;-51
2022/06/23 01:11:02;;;;;;;4.18;2.88;;;16.50;99.90;;;;;;5075125;28;20204;-52
2022/06/23 01:13:39;;;;;;;5.93;3.35;;;16.30;99.90;;;;;;5089200;28;20299;-52
2022/06/23 01:16:13;;;;;;;2.97;2.65;;;16.10;99.90;;;;;;5088970;28;20211;-52
2022/06/23 01:18:47;;;;;;;4.60;3.03;;;16.00;99.90;;;;;;5088705;28;20235;-52
2022/06/23 01:21:19;;;;;;;6.05;2.92;;;16.00;99.90;;;;;;5088514;28;20273;-52
2022/06/23 01:24:13;;;;;;;3.30;3.00;;;16.00;99.90;;;;;;5088794;28;20302;-52
2022/06/23 01:26:59;;;;;;;3.67;2.90;;;16.00;99.90;;;;;;5077203;28;20582;-51
2022/06/23 01:29:33;;;;;;;5.95;3.10;;;15.90;99.90;;;;;;5089125;28;20224;-52
2022/06/23 01:32:13;;;;;;;3.45;3.15;;;15.90;99.90;;;;;;5088217;28;20667;-51
2022/06/23 01:34:47;;;;;;;6.28;3.05;;;15.90;99.90;;;;;;5089141;28;20227;-52
2022/06/23 01:37:22;;;;;;;3.95;3.20;;;15.80;99.90;;;;;;5088848;28;20231;-51
2022/06/23 01:39:57;;;;;;;7.43;3.13;;;15.80;99.90;;;;;;5088973;28;20293;-52
2022/06/23 01:42:33;;;;;;;6.97;3.25;;;15.80;99.90;;;;;;5089026;28;20256;-51
2022/06/23 01:45:06;;;;;;;4.60;3.17;;;15.70;99.90;;;;;;5089178;28;20630;-52
2022/06/23 01:47:38;;;;;;;3.55;3.25;;;15.70;99.90;;;;;;5088785;28;20235;-52
2022/06/23 01:50:35;;;;;;;3.83;3.35;;;15.70;99.90;;;;;;5089497;28;20220;-52
2022/06/23 01:53:26;;;;;;;5.65;3.30;;;15.60;99.90;;;;;;5091606;28;20735;-52
2022/06/23 01:56:17;;;;;;;3.67;3.15;;;15.60;99.90;;;;;;5087656;28;20742;-52
2022/06/23 01:58:52;;;;;;;8.80;3.70;;;15.60;99.90;;;;;;5092461;28;20350;-51
2022/06/23 02:01:27;;;;;;;4.38;3.53;;;15.50;99.90;;;;;;5091784;28;20611;-51
2022/06/23 02:04:02;;;;;;;3.58;3.25;;;15.50;99.90;;;;;;5092476;28;20232;-51
2022/06/23 02:06:39;;;;;;;4.25;3.42;;;15.50;99.90;;;;;;5091735;28;20246;-52
2022/06/23 02:09:16;;;;;;;3.97;3.55;;;15.50;99.90;;;;;;5087976;28;20353;-51
2022/06/23 02:11:46;;;;;;;3.83;3.13;;;15.50;99.90;;;;;;5082935;28;20204;-52
2022/06/23 02:14:43;;;;;;;5.37;3.57;;;15.40;99.90;;;;;;5092267;28;20580;-52
2022/06/23 02:17:39;;;;;;;4.43;3.53;;;15.40;99.90;;;;;;5071258;28;20848;-52
2022/06/23 02:20:26;;;;;;;6.05;3.90;;;15.30;99.90;;;;;;5085478;28;20209;-51
2022/06/23 02:23:18;;;;;;;4.00;3.60;;;15.10;99.90;;;;;;5090708;28;20646;-51
2022/06/23 02:25:52;;;;;;;7.18;3.60;;;15.10;99.90;;;;;;5091906;28;20209;-51
2022/06/23 02:28:32;;;;;;;4.27;3.83;;;14.90;99.90;;;;;;5090872;28;20260;-52
2022/06/23 02:31:07;;;;;;;6.23;3.77;;;15.00;99.90;;;;;;5075201;28;20209;-52
2022/06/23 02:33:42;;;;;;;3.60;3.27;;;15.00;99.90;;;;;;5082763;28;20228;-51
2022/06/23 02:36:34;;;;;;;3.83;3.37;;;15.00;99.90;;;;;;5079694;28;20232;-52
2022/06/23 02:39:05;;;;;;;6.10;3.37;;;14.90;99.90;;;;;;5078174;28;20263;-53
2022/06/23 02:41:39;;;;;;;4.70;3.30;;;15.00;99.90;;;;;;5091790;28;20204;-52
2022/06/23 02:44:35;;;;;;;4.00;3.30;;;14.90;99.90;;;;;;5084553;28;20232;-52
2022/06/23 02:47:18;;;;;;;6.17;3.37;;;15.00;99.90;;;;;;5087889;28;20270;-52
2022/06/23 02:50:04;;;;;;;4.70;3.63;;;15.00;99.90;;;;;;5091451;28;20289;-51
2022/06/23 02:53:05;;;;;;;3.87;3.47;;;15.00;99.90;;;;;;5091004;28;20254;-52
2022/06/23 02:56:09;;;;;;;4.80;3.67;;;14.90;99.90;;;;;;5090468;28;20268;-52
2022/06/23 02:58:46;;;;;;;4.30;3.90;;;14.90;99.90;;;;;;5059069;28;20285;-52
2022/06/23 03:01:20;;;;;;;5.20;3.90;;;14.80;99.90;;;;;;5070856;28;20228;-52
2022/06/23 03:03:57;;;;;;;5.00;3.67;;;14.70;99.90;;;;;;5085019;28;20204;-52
2022/06/23 03:06:35;;;;;;;4.27;3.80;;;14.70;99.90;;;;;;5090797;28;20239;-52
2022/06/23 03:09:09;;;;;;;5.20;3.83;;;14.60;99.90;;;;;;5090076;28;20239;-52
2022/06/23 03:11:55;;;;;;;4.30;3.90;;;14.60;99.90;;;;;;5090705;28;20341;-52
2022/06/23 03:14:32;;;;;;;4.77;3.83;;;14.60;99.90;;;;;;5090681;28;20580;-52
2022/06/23 03:17:05;;;;;;;4.65;3.65;;;14.60;99.90;;;;;;5090573;28;20717;-52
2022/06/23 03:19:38;;;;;;;6.77;4.10;;;14.60;99.90;;;;;;5090565;28;20228;-52
2022/06/23 03:22:16;;;;;;;4.93;3.90;;;14.60;99.90;;;;;;5090083;28;20231;-52
2022/06/23 03:24:55;;;;;;;7.27;3.73;;;14.60;99.90;;;;;;5090009;28;20243;-51
2022/06/23 03:27:29;;;;;;;4.57;4.00;;;14.60;99.90;;;;;;5090889;28;20240;-52
2022/06/23 03:30:01;;;;;;;7.27;4.10;;;14.60;99.90;;;;;;5090322;28;20281;-52
2022/06/23 03:32:33;;;;;;;5.00;3.80;;;14.60;99.90;;;;;;5090283;28;20633;-52
2022/06/23 03:35:09;;;;;;;4.63;3.90;;;14.70;99.90;;;;;;5085595;28;20697;-52
2022/06/23 03:37:46;;;;;;;4.07;3.67;;;14.70;99.90;;;;;;5081599;28;20258;-52
2022/06/23 03:43:15;;;;;;;4.00;3.50;;;14.70;99.90;;;;;;5090169;28;20240;-52
2022/06/23 03:45:49;;;;;;;3.97;3.67;;;14.80;99.90;;;;;;5090171;28;20200;-51
2022/06/23 03:48:23;;;;;;;5.47;3.57;;;14.80;99.90;;;;;;5090125;28;20301;-52
2022/06/23 03:50:58;;;;;;;4.30;3.80;;;14.80;99.90;;;;;;5090285;28;20226;-52
2022/06/23 03:53:32;;;;;;;4.60;3.00;;;14.90;99.90;;;;;;5089635;28;20231;-53
2022/06/23 03:56:03;;;;;;;5.73;3.67;;;14.90;99.90;;;;;;5090366;28;20232;-51
2022/06/23 03:58:40;;;;;;;4.35;3.72;;;15.00;99.90;;;;;;5089698;28;20224;-51
2022/06/23 04:01:17;;;;;;;4.28;3.88;;;15.10;99.90;;;;;;5092913;28;20215;-51
2022/06/23 04:03:49;;;;;;;4.85;3.65;;;15.10;99.90;;;;;;5093040;28;20291;-51
2022/06/23 04:06:31;;;;;;;4.03;3.10;;;15.20;99.90;;;;;;5090814;28;20200;-52
2022/06/23 04:09:08;;;;;;;7.20;3.27;;;15.20;99.90;;;;;;5089598;28;20227;-51
2022/06/23 04:11:46;;;;;;;3.72;3.42;;;15.40;99.90;;;;;;5090589;28;20258;-51
2022/06/23 04:14:25;;;;;;;4.20;3.65;;;15.70;99.90;;;;;;5088829;28;20266;-52
2022/06/23 04:16:58;;;;;;;4.45;3.45;;;17.00;99.90;;;;;;5089551;28;20624;-52
2022/06/23 04:19:31;;;;;;;3.63;3.10;;;18.00;99.90;;;;;;5089290;28;20737;-52
2022/06/23 04:22:06;;;;;;;5.07;3.25;;;18.70;99.90;;;;;;5089777;28;20212;-52
2022/06/23 04:24:37;;;;;;;3.17;2.60;;;19.30;99.90;;;;;;5075650;28;20196;-52
2022/06/23 04:27:17;;;;;;;3.63;3.33;;;19.70;99.90;;;;;;5089722;28;20239;-52
2022/06/23 04:29:50;;;;;;;3.65;3.33;;;20.00;99.90;;;;;;5076522;28;20668;-52
2022/06/23 04:32:23;;;;;;;3.95;3.08;;;20.10;99.90;;;;;;5089669;28;20251;-52
2022/06/23 04:34:55;;;;;;;4.93;3.45;;;20.50;99.90;;;;;;5073603;28;20227;-52
2022/06/23 04:37:31;;;;;;;4.40;2.97;;;21.00;99.90;;;;;;5078875;28;20672;-52
2022/06/23 04:40:20;;;;;;;3.03;2.72;;;21.30;99.90;;;;;;5089582;28;20282;-52
2022/06/23 04:42:53;;;;;;;3.42;3.00;;;21.60;99.90;;;;;;5089351;28;20321;-52
2022/06/23 04:45:39;;;;;;;2.90;2.60;;;22.10;99.90;;;;;;5089473;28;20208;-52
2022/06/23 04:48:15;;;;;;;2.90;2.70;;;22.50;99.90;;;;;;5088134;28;20255;-52
2022/06/23 04:50:47;;;;;;;3.83;2.47;;;22.70;99.90;;;;;;5100857;28;20219;-52
2022/06/23 04:53:27;;;;;;;2.60;2.40;;;23.10;99.90;;;;;;5109414;28;20286;-52
2022/06/23 04:56:07;;;;;;;4.13;2.90;;;23.40;99.90;;;;;;5109636;28;20250;-52
2022/06/23 04:58:50;;;;;;;2.88;2.30;;;23.60;99.90;;;;;;5109365;28;20234;-52
2022/06/23 05:01:22;;;;;;;4.70;2.60;;;23.90;99.90;;;;;;5109757;28;20207;-52
2022/06/23 05:03:53;;;;;;;4.88;2.72;;;24.20;99.90;;;;;;5108967;28;20699;-51
2022/06/23 05:06:33;;;;;;;4.93;2.95;;;24.60;99.90;;;;;;5109947;28;20886;-51
2022/06/23 05:09:04;;;;;;;4.68;3.70;;;24.90;99.90;;;;;;5108846;28;20258;-52
2022/06/23 05:11:42;;;;;;;4.70;3.28;;;25.00;99.90;;;;;;5109729;28;20199;-52
2022/06/23 05:14:17;;;;;;;3.33;2.38;;;25.20;99.90;;;;;;5109958;28;20280;-52
2022/06/23 05:16:49;;;;;;;6.00;2.75;;;25.60;99.90;;;;;;5107041;28;20207;-51
2022/06/23 05:19:24;;;;;;;4.07;2.90;;;25.80;99.90;;;;;;5087813;28;20228;-51
2022/06/23 05:21:56;;;;;;;4.78;2.85;;;25.60;99.90;;;;;;5095329;28;20200;-51
2022/06/23 05:24:28;;;;;;;4.57;3.30;;;25.70;99.90;;;;;;5105740;28;20638;-52
2022/06/23 05:27:00;;;;;;;7.22;6.38;;;25.90;99.90;;;;;;5092832;28;20212;-52
2022/06/23 05:29:35;;;;;;;8.65;6.07;;;26.00;99.90;;;;;;5103814;28;20224;-52
2022/06/23 05:32:12;;;;;;;6.18;5.57;;;26.30;99.90;;;;;;5112621;28;20203;-52
2022/06/23 05:34:49;;;;;;;5.07;3.97;;;26.70;99.90;;;;;;5103741;28;20267;-53
2022/06/23 05:37:21;;;;;;;4.05;3.22;;;27.00;98.60;;;;;;5082017;28;20235;-52
2022/06/23 05:39:55;;;;;;;3.50;3.20;;;27.10;98.50;;;;;;5092386;28;20755;-52
2022/06/23 05:42:27;;;;;;;4.85;3.17;;;27.60;97.10;;;;;;5092726;28;20623;-51
2022/06/23 05:45:01;;;;;;;4.47;2.90;;;27.60;97.30;;;;;;5092619;28;20578;-51
2022/06/23 05:47:32;;;;;;;5.68;3.10;;;27.80;96.30;;;;;;5092636;28;20333;-52
2022/06/23 05:50:05;;;;;;;2.97;2.60;;;28.00;95.50;;;;;;5092069;28;20256;-52
2022/06/23 05:52:39;;;;;;;3.53;2.65;;;28.40;94.40;;;;;;5092180;28;20212;-52
2022/06/23 05:55:15;;;;;;;3.97;2.80;;;28.50;94.20;;;;;;5091757;28;20720;-52
2022/06/23 05:57:51;;;;;;;3.25;2.80;;;28.70;94.70;;;;;;5092338;28;20553;-52
2022/06/23 06:00:28;;;;;;;2.97;2.67;;;28.90;94.30;;;;;;5092563;28;20211;-52
2022/06/23 06:03:01;;;;;;;3.45;2.50;;;29.00;94.40;;;;;;5091872;28;20633;-52
2022/06/23 06:05:34;;;;;;;2.72;2.40;;;29.00;93.80;;;;;;5092526;28;20308;-52
2022/06/23 06:08:06;;;;;;;5.55;2.55;;;29.30;93.60;;;;;;5091788;28;20232;-52
2022/06/23 06:10:36;;;;;;;2.78;2.15;;;29.30;93.20;;;;;;5092206;28;20634;-52
2022/06/23 06:13:14;;;;;;;2.75;2.10;;;29.40;93.80;;;;;;5092320;28;20204;-52
2022/06/23 06:15:48;;;;;;;2.47;2.30;;;29.40;94.40;;;;;;5091273;28;20244;-53
2022/06/23 06:18:21;;;;;;;3.15;2.60;;;29.30;94.60;;;;;;5091178;28;20627;-52
2022/06/23 06:20:50;;;;;;;3.30;2.38;;;29.40;93.70;;;;;;5091773;28;20251;-52
2022/06/23 06:23:25;;;;;;;4.72;2.22;;;29.50;93.80;;;;;;5091928;28;20247;-52
2022/06/23 06:25:53;;;;;;;3.33;2.50;;;29.90;92.80;;;;;;5091607;28;20212;-52
2022/06/23 06:28:25;;;;;;;4.25;2.40;;;29.90;92.70;;;;;;5091846;28;20831;-52
2022/06/23 06:30:58;;;;;;;3.40;2.33;;;30.10;92.20;;;;;;5091554;28;20313;-52
2022/06/23 06:33:35;;;;;;;3.10;2.10;;;29.90;92.00;;;;;;5091748;28;20234;-52
2022/06/23 06:36:18;;;;;;;4.10;2.20;;;30.10;91.90;;;;;;5077863;28;20229;-53
2022/06/23 06:38:47;;;;;;;2.67;2.38;;;30.40;91.60;;;;;;5078491;28;20285;-52
2022/06/23 06:41:15;;;;;;;3.35;2.28;;;30.50;90.70;;;;;;5091435;28;20212;-52
2022/06/23 06:43:44;;;;;;;3.83;2.30;;;30.40;90.90;;;;;;5091732;28;20334;-52
2022/06/23 06:46:12;;;;;;;3.97;2.30;;;30.20;90.30;;;;;;5085025;28;20231;-52
2022/06/23 06:48:43;;;;;;;3.72;2.15;;;30.50;89.80;;;;;;5091714;28;20235;-52
2022/06/23 06:51:17;;;;;;;3.60;2.15;;;30.30;86.90;;;;;;5091638;28;20211;-53
2022/06/23 06:53:51;;;;;;;3.33;2.17;;;30.60;87.70;;;;;;5089311;28;20207;-52
2022/06/23 06:56:24;;;;;;;4.40;2.20;;;30.90;89.60;;;;;;5091103;28;20232;-52
2022/06/23 06:59:00;;;;;;;4.57;2.30;;;31.10;88.20;;;;;;5088659;28;20219;-52
2022/06/23 07:01:33;;;;;;;2.00;1.80;;;31.10;86.00;;;;;;5090564;28;20260;-53
2022/06/23 07:04:01;;;;;;;3.10;2.22;;;31.00;86.40;;;;;;5090122;28;20199;-52
2022/06/23 07:06:34;;;;;;;2.63;2.20;;;31.10;85.70;;;;;;5091343;28;20252;-52
2022/06/23 07:09:08;;;;;;;3.92;2.10;;;31.30;84.80;;;;;;5089040;28;20224;-52
2022/06/23 07:11:45;;;;;;;2.67;2.22;;;31.40;86.20;;;;;;5090680;28;20215;-52
2022/06/23 07:14:21;;;;;;;2.92;1.98;;;31.50;85.90;;;;;;5089690;28;20231;-52
2022/06/23 07:16:54;;;;;;;3.70;2.17;;;31.60;83.80;;;;;;5089919;28;20743;-53
2022/06/23 07:19:28;;;;;;;3.65;2.33;;;31.80;84.70;;;;;;5090973;28;20229;-52
2022/06/23 07:22:01;;;;;;;4.07;2.22;;;32.00;84.50;;;;;;5082779;28;20238;-52
2022/06/23 07:24:34;;;;;;;4.70;2.17;;;32.00;87.80;;;;;;5089430;28;20200;-52
2022/06/23 07:27:08;;;;;;;3.83;2.40;;;32.10;87.70;;;;;;5090738;28;20203;-53
2022/06/23 07:29:43;;;;;;;4.10;2.40;;;32.20;87.90;;;;;;5104291;28;20261;-52
2022/06/23 07:32:22;;;;;;;4.63;2.25;;;32.20;88.30;;;;;;5091606;28;20207;-53
2022/06/23 07:34:55;;;;;;;2.90;2.17;;;32.30;88.80;;;;;;5087412;28;20242;-52
2022/06/23 07:37:29;;;;;;;4.00;2.20;;;32.00;86.90;;;;;;5080160;28;20228;-53
2022/06/23 07:40:02;;;;;;;4.50;2.50;;;32.00;87.00;;;;;;5090185;28;20314;-53
2022/06/23 07:43:06;;;;;;;2.47;2.08;;;31.80;85.40;;;;;;5091094;28;20211;-52
2022/06/23 07:45:50;;;;;;;4.18;2.40;;;32.10;87.00;;;;;;5089999;28;20713;-52
2022/06/23 07:48:18;;;;;;;2.95;2.00;;;32.20;84.90;;;;;;5088677;28;20228;-53
2022/06/23 07:50:47;;;;;;;4.57;2.20;;;32.20;84.90;;;;;;5089872;28;20735;-53
2022/06/23 07:53:19;;;;;;;4.20;2.53;;;32.30;85.90;;;;;;5089804;28;20244;-53
2022/06/23 07:55:49;;;;;;;4.00;2.38;;;32.50;86.20;;;;;;5089737;28;20281;-53
2022/06/23 07:58:23;;;;;;;3.97;2.40;;;32.50;84.30;;;;;;5089665;28;20254;-53
2022/06/23 08:00:59;;;;;;;2.45;2.20;;;32.60;86.60;;;;;;5090056;28;20657;-53
2022/06/23 08:03:34;;;;;;;2.85;2.13;;;32.50;85.30;;;;;;5079911;28;20308;-53
2022/06/23 08:06:06;;;;;;;2.30;2.10;;;32.50;85.40;;;;;;5088240;28;20195;-52
2022/06/23 08:08:38;;;;;;;3.78;2.20;;;32.20;82.30;;;;;;5088498;28;20263;-51
2022/06/23 08:14:23;;;;;;;5.82;2.35;;;31.80;87.00;;;;;;5088275;28;20291;-53
2022/06/23 08:16:52;;;;;;;2.35;2.15;;;31.40;88.40;;;;;;5090085;28;20247;-53
2022/06/23 08:19:35;;;;;;;3.33;2.20;;;31.00;84.40;;;;;;5090597;28;20227;-53
2022/06/23 08:22:08;;;;;;;3.65;2.50;;;30.80;88.10;;;;;;5087058;28;20688;-52
2022/06/23 08:24:38;;;;;;;3.42;2.30;;;30.80;85.30;;;;;;5084357;28;20257;-52
2022/06/23 08:27:12;;;;;;;3.45;2.40;;;30.60;83.20;;;;;;5089910;28;20257;-52
2022/06/23 08:29:44;;;;;;;3.22;2.40;;;30.50;85.40;;;;;;5089663;28;20642;-53
2022/06/23 08:32:17;;;;;;;3.88;2.20;;;30.60;86.50;;;;;;5089300;28;20240;-52
2022/06/23 08:34:52;;;;;;;4.45;2.50;;;30.50;87.30;;;;;;5087208;28;20652;-53
2022/06/23 08:37:24;;;;;;;7.88;2.90;;;30.60;85.50;;;;;;5078409;28;20258;-52
2022/06/23 08:39:58;;;;;;;3.50;2.05;;;30.50;83.60;;;;;;5089658;28;20224;-52
2022/06/23 08:42:34;;;;;;;2.83;2.38;;;30.50;86.80;;;;;;5089655;28;20239;-53
2022/06/23 08:45:15;;;;;;;3.40;2.40;;;30.30;89.90;;;;;;5089664;28;20231;-52
2022/06/23 08:47:51;;;;;;;3.75;2.58;;;30.40;88.30;;;;;;5088505;28;20253;-52
2022/06/23 08:50:28;;;;;;;4.18;2.78;;;30.30;89.80;;;;;;5089218;28;20738;-52
2022/06/23 08:53:02;;;;;;;4.40;2.70;;;30.20;84.50;;;;;;5088874;28;20204;-52
2022/06/23 08:55:40;;;;;;;5.18;2.50;;;30.10;86.90;;;;;;5089636;28;20286;-52
2022/06/23 08:58:24;;;;;;;3.78;2.53;;;30.20;88.00;;;;;;5089437;28;20228;-52
2022/06/23 09:00:58;;;;;;;3.00;2.70;;;30.30;88.70;;;;;;5092700;28;20253;-52
2022/06/23 09:03:38;;;;;;;4.45;2.53;;;30.20;87.30;;;;;;5093056;28;20208;-52
2022/06/23 09:06:13;;;;;;;4.55;2.80;;;30.20;88.00;;;;;;5093143;28;20236;-52
2022/06/23 09:08:45;;;;;;;4.35;2.72;;;30.20;87.50;;;;;;5092332;28;20935;-52
2022/06/23 09:11:35;;;;;;;4.25;2.80;;;30.10;88.40;;;;;;5083109;28;20209;-52
2022/06/23 09:14:28;;;;;;;6.25;3.22;;;30.10;88.00;;;;;;5093452;28;20469;-52
2022/06/23 09:17:31;;;;;;;3.17;2.80;;;30.10;87.10;;;;;;5085439;28;20227;-52
2022/06/23 09:20:19;;;;;;;4.90;3.47;;;30.10;90.50;;;;;;5083523;28;20244;-53
2022/06/23 09:23:13;;;;;;;3.63;2.88;;;30.10;89.20;;;;;;5091317;28;20208;-52
2022/06/23 09:25:48;;;;;;;5.70;3.03;;;30.10;89.20;;;;;;5093279;28;20204;-52
2022/06/23 09:28:19;;;;;;;3.10;2.75;;;30.10;85.30;;;;;;5092633;28;20255;-52
2022/06/23 09:31:08;;;;;;;5.53;2.97;;;30.00;85.30;;;;;;5092581;28;20208;-52
2022/06/23 09:33:49;;;;;;;4.82;3.53;;;30.10;86.50;;;;;;5082748;28;20294;-52
2022/06/23 09:36:58;;;;;;;4.40;3.00;;;30.20;84.50;;;;;;5078856;28;20235;-52
2022/06/23 09:39:48;;;;;;;3.33;2.92;;;30.00;82.30;;;;;;5092413;28;20297;-52
2022/06/23 09:42:48;;;;;;;3.25;2.92;;;30.00;84.20;;;;;;5080727;28;20760;-52
2022/06/23 09:45:33;;;;;;;4.78;3.30;;;29.90;82.60;;;;;;5058728;28;20253;-51
2022/06/23 09:48:32;;;;;;;4.97;3.08;;;29.80;83.60;;;;;;5093231;28;20232;-52
2022/06/23 09:51:29;;;;;;;4.25;3.17;;;29.80;84.00;;;;;;5082743;28;20204;-52
2022/06/23 09:54:27;;;;;;;4.43;2.92;;;29.80;81.50;;;;;;5091555;28;20215;-52
2022/06/23 09:57:38;;;;;;;4.95;2.80;;;29.80;84.70;;;;;;5085682;28;20267;-51
2022/06/23 10:00:10;;;;;;;3.97;2.78;;;29.80;84.60;;;;;;5092030;28;20215;-52
2022/06/23 10:02:54;;;;;;;4.20;3.03;;;29.80;82.60;;;;;;5091799;28;20599;-52
2022/06/23 10:05:40;;;;;;;5.30;3.20;;;29.70;82.70;;;;;;5092428;28;20204;-52
2022/06/23 10:08:28;;;;;;;3.72;3.17;;;29.70;81.70;;;;;;5091474;28;20224;-52
2022/06/23 10:11:22;;;;;;;4.75;3.08;;;29.80;84.00;;;;;;5091120;28;20212;-52
2022/06/23 10:14:09;;;;;;;3.45;3.08;;;29.80;82.90;;;;;;5087495;28;20204;-52
2022/06/23 10:16:54;;;;;;;3.97;3.33;;;29.80;85.50;;;;;;5091829;28;20238;-52
2022/06/23 10:19:44;;;;;;;3.30;2.85;;;29.80;81.70;;;;;;5091448;28;20258;-52
2022/06/23 10:22:25;;;;;;;6.07;3.30;;;29.70;83.90;;;;;;5084273;28;20207;-53
2022/06/23 10:25:17;;;;;;;3.33;3.03;;;29.70;83.80;;;;;;5089343;28;20208;-52
2022/06/23 10:28:07;;;;;;;5.05;2.95;;;29.70;84.50;;;;;;5088488;28;20250;-52
2022/06/23 10:30:44;;;;;;;3.50;3.05;;;29.70;86.00;;;;;;5090627;28;20232;-52
2022/06/23 10:33:41;;;;;;;5.10;3.30;;;29.70;84.80;;;;;;5091756;28;20230;-52
2022/06/23 10:36:41;;;;;;;3.80;2.97;;;29.80;84.00;;;;;;5081928;28;20228;-51
2022/06/23 10:39:30;;;;;;;6.60;3.25;;;29.80;83.50;;;;;;5077352;28;20874;-53
2022/06/23 10:42:22;;;;;;;3.50;3.00;;;29.80;82.10;;;;;;5091216;28;20204;-52
2022/06/23 10:45:08;;;;;;;6.35;3.30;;;29.80;85.30;;;;;;5091534;28;20803;-52
2022/06/23 10:48:12;;;;;;;4.55;3.55;;;29.80;84.70;;;;;;5080752;28;20205;-52
2022/06/23 10:50:51;;;;;;;3.38;2.85;;;29.80;84.90;;;;;;5077769;28;20253;-52
2022/06/23 10:53:50;;;;;;;6.47;3.60;;;29.80;84.30;;;;;;5090790;28;20665;-52
2022/06/23 10:56:34;;;;;;;4.68;3.30;;;29.70;82.00;;;;;;5081778;28;20232;-52
2022/06/23 10:59:28;;;;;;;3.35;3.05;;;29.60;81.80;;;;;;5091278;28;20220;-52
2022/06/23 11:02:39;;;;;;;8.05;3.42;;;29.60;83.70;;;;;;5087901;28;20350;-51
2022/06/23 11:05:43;;;;;;;5.78;3.47;;;29.60;88.90;;;;;;5080507;28;20676;-52
2022/06/23 11:08:32;;;;;;;4.40;3.35;;;29.70;83.70;;;;;;5070650;28;20224;-52
2022/06/23 11:11:22;;;;;;;5.70;3.05;;;29.80;85.20;;;;;;5096695;28;20268;-52
2022/06/23 11:13:58;;;;;;;5.43;3.38;;;29.70;85.00;;;;;;5091226;28;20262;-52
2022/06/23 11:16:35;;;;;;;4.78;3.35;;;29.70;85.80;;;;;;5090796;28;20702;-52
2022/06/23 11:19:17;;;;;;;5.60;3.08;;;29.80;87.20;;;;;;5090099;28;20909;-52
2022/06/23 11:22:03;;;;;;;7.00;3.30;;;29.80;85.30;;;;;;5089159;28;20215;-52
2022/06/23 11:24:42;;;;;;;4.32;3.22;;;29.70;85.80;;;;;;5090518;28;20226;-52
2022/06/23 11:27:18;;;;;;;4.57;3.60;;;29.80;87.80;;;;;;5090253;28;20208;-52
2022/06/23 11:30:04;;;;;;;3.15;2.95;;;29.80;86.30;;;;;;5090581;28;20696;-52
2022/06/23 11:32:44;;;;;;;5.45;3.20;;;29.80;85.50;;;;;;5085691;28;20295;-52
2022/06/23 11:35:37;;;;;;;5.63;3.58;;;29.80;87.60;;;;;;5080738;28;20208;-53
2022/06/23 11:38:32;;;;;;;4.43;3.38;;;29.80;83.90;;;;;;5085008;28;20322;-52
2022/06/23 11:41:12;;;;;;;4.00;3.25;;;29.80;89.20;;;;;;5090585;28;20240;-52
2022/06/23 11:43:51;;;;;;;4.18;3.40;;;29.80;87.00;;;;;;5089486;28;20199;-52
2022/06/23 11:46:30;;;;;;;4.13;3.28;;;29.70;85.60;;;;;;5090117;28;20231;-53
2022/06/23 11:49:25;;;;;;;3.60;3.30;;;29.80;86.30;;;;;;5089686;28;20259;-52
2022/06/23 11:52:19;;;;;;;3.80;3.33;;;29.90;87.10;;;;;;5090426;28;20657;-52
2022/06/23 11:55:18;;;;;;;4.57;3.60;;;30.00;87.10;;;;;;5076577;28;20208;-52
2022/06/23 11:58:05;;;;;;;5.68;3.42;;;29.80;87.00;;;;;;5079480;28;21020;-52
2022/06/23 12:00:46;;;;;;;4.55;3.28;;;29.90;83.80;;;;;;5088781;28;20510;-53
2022/06/23 12:03:30;;;;;;;7.95;3.15;;;29.90;79.00;;;;;;5090179;28;20254;-53
2022/06/23 12:06:09;;;;;;;4.55;3.55;;;29.90;81.20;;;;;;5076746;28;20578;-52
2022/06/23 12:08:57;;;;;;;4.35;3.50;;;29.90;81.70;;;;;;5089204;28;20228;-52
2022/06/23 12:11:28;;;;;;;3.83;3.53;;;29.90;85.30;;;;;;5083086;28;20216;-52
2022/06/23 12:13:59;;;;;;;4.28;3.53;;;29.90;86.40;;;;;;5089246;28;20200;-53
2022/06/23 12:16:28;;;;;;;4.90;3.50;;;29.90;83.50;;;;;;5088134;28;20208;-53
2022/06/23 12:19:01;;;;;;;4.15;3.70;;;30.00;83.40;;;;;;5088481;28;20251;-52
2022/06/23 12:21:37;;;;;;;4.35;3.80;;;30.00;85.60;;;;;;5077965;28;20836;-51
2022/06/23 12:24:13;;;;;;;4.45;3.75;;;29.90;82.90;;;;;;5088498;28;20282;-52
2022/06/23 12:26:46;;;;;;;6.68;3.90;;;29.90;81.40;;;;;;5087761;28;20584;-52
2022/06/23 12:29:20;;;;;;;4.45;3.40;;;30.00;83.90;;;;;;5088117;28;20248;-52
2022/06/23 12:31:57;;;;;;;4.88;3.30;;;30.00;86.40;;;;;;5088325;28;20192;-53
2022/06/23 12:34:34;;;;;;;4.82;3.70;;;30.10;83.80;;;;;;5089035;28;20204;-52
2022/06/23 12:37:13;;;;;;;8.45;3.75;;;30.00;82.10;;;;;;5075507;28;20672;-52
2022/06/23 12:39:48;;;;;;;7.45;3.88;;;30.00;83.60;;;;;;5088888;28;20263;-52
2022/06/23 12:42:23;;;;;;;4.20;3.50;;;29.90;79.80;;;;;;5089217;28;20211;-52
2022/06/23 12:45:22;;;;;;;5.53;3.70;;;29.80;78.70;;;;;;5089152;28;20227;-52
2022/06/23 12:48:04;;;;;;;4.70;3.47;;;29.80;81.50;;;;;;5072946;28;20233;-52
2022/06/23 12:50:49;;;;;;;5.40;3.67;;;29.90;82.40;;;;;;5109515;28;20207;-52
2022/06/23 12:53:36;;;;;;;4.95;3.50;;;29.80;80.80;;;;;;5109165;28;20212;-52
2022/06/23 12:56:18;;;;;;;5.32;3.60;;;29.90;79.20;;;;;;5109299;28;20256;-52
2022/06/23 12:58:52;;;;;;;3.90;3.60;;;29.90;82.40;;;;;;5108272;28;20223;-52
2022/06/23 13:01:37;;;;;;;4.38;3.78;;;30.00;85.10;;;;;;5106935;28;20608;-52
2022/06/23 13:04:12;;;;;;;4.18;3.50;;;30.10;83.20;;;;;;5109350;28;20203;-53
2022/06/23 13:06:49;;;;;;;4.28;3.88;;;29.90;83.50;;;;;;5109766;28;20278;-52
2022/06/23 13:09:28;;;;;;;4.55;3.80;;;29.90;84.60;;;;;;5108841;28;20268;-52
2022/06/23 13:12:20;;;;;;;4.32;3.80;;;29.90;83.90;;;;;;5109229;28;20290;-52
2022/06/23 13:14:54;;;;;;;5.45;3.53;;;29.90;84.60;;;;;;5108619;28;20242;-52
2022/06/23 13:17:32;;;;;;;5.18;3.75;;;30.00;83.80;;;;;;5109187;28;20268;-52
2022/06/23 13:20:06;;;;;;;4.15;3.60;;;30.00;85.40;;;;;;5108774;28;20247;-52
2022/06/23 13:22:46;;;;;;;3.72;3.40;;;30.00;83.40;;;;;;5107317;28;20227;-52
2022/06/23 13:25:18;;;;;;;4.03;3.63;;;30.00;82.90;;;;;;5108686;28;20207;-52
2022/06/23 13:27:50;;;;;;;3.75;3.38;;;30.10;81.10;;;;;;5109098;28;20229;-52
2022/06/23 13:30:46;;;;;;;4.15;3.72;;;30.00;79.70;;;;;;5102399;28;20287;-52
2022/06/23 13:33:24;;;;;;;5.03;3.58;;;30.00;79.60;;;;;;5102994;28;20207;-53
2022/06/23 13:35:59;;;;;;;5.20;3.60;;;30.00;81.90;;;;;;5069142;28;20211;-53
2022/06/23 13:38:40;;;;;;;4.50;3.58;;;30.00;83.40;;;;;;5087359;28;20254;-51
2022/06/23 13:41:15;;;;;;;5.35;3.60;;;30.10;80.50;;;;;;5088658;28;20209;-51
2022/06/23 13:43:51;;;;;;;5.80;3.85;;;30.00;81.30;;;;;;5089135;28;20293;-52
2022/06/23 13:46:28;;;;;;;3.80;3.50;;;30.10;82.30;;;;;;5091892;28;20269;-52
2022/06/23 13:49:13;;;;;;;4.22;3.80;;;30.10;85.30;;;;;;5092596;28;20228;-52
2022/06/23 13:51:48;;;;;;;3.85;3.45;;;30.10;84.40;;;;;;5092074;28;20299;-52
2022/06/23 13:54:24;;;;;;;4.65;3.80;;;30.10;84.40;;;;;;5091193;28;20689;-51